Time;durP1;ratioP1;P1;durP2;ratioP2;P2;SDS_P1;SDS_P2;PMS_P1;PMS_P2;Temp;Humidity;BMP_temperature;BMP_pressure;BME280_temperature;BME280_humidity;BME280_pressure;Samples;Min_cycle;Max_cycle;Signal;HPM_P1;HPM_P2
2021/10/25 00:02:24;;;;;;;0.10;0.10;;;5.30;99.90;;;;;;6298363;22;20018;-82
2021/10/25 00:04:50;;;;;;;0.10;0.10;;;5.30;99.90;;;;;;6273505;22;20073;-82
2021/10/25 00:07:17;;;;;;;0.10;0.10;;;5.40;99.90;;;;;;6272895;22;20011;-81
2021/10/25 00:09:44;;;;;;;0.10;0.10;;;5.40;99.90;;;;;;6273484;22;20393;-81
2021/10/25 00:12:10;;;;;;;0.10;0.10;;;5.40;99.90;;;;;;6273421;22;20020;-81
2021/10/25 00:14:41;;;;;;;0.10;0.10;;;5.40;99.90;;;;;;6247763;22;20012;-82
2021/10/25 00:17:08;;;;;;;0.10;0.10;;;5.40;99.90;;;;;;6273994;22;20015;-81
2021/10/25 00:19:35;;;;;;;0.10;0.10;;;5.40;99.90;;;;;;6297727;22;20025;-81
2021/10/25 00:22:03;;;;;;;0.10;0.10;;;5.40;99.90;;;;;;6273187;22;20015;-82
2021/10/25 00:24:29;;;;;;;0.10;0.10;;;5.40;99.90;;;;;;6297860;22;20072;-81
2021/10/25 00:26:56;;;;;;;0.25;0.25;;;5.30;99.90;;;;;;6272985;22;20019;-82
2021/10/25 00:29:23;;;;;;;0.10;0.10;;;5.50;99.90;;;;;;6298043;22;20027;-81
2021/10/25 00:31:50;;;;;;;0.10;0.10;;;5.40;99.90;;;;;;6323789;22;20097;-81
2021/10/25 00:34:16;;;;;;;0.10;0.10;;;5.30;99.90;;;;;;6247970;22;20022;-81
2021/10/25 00:36:43;;;;;;;0.10;0.10;;;5.50;99.90;;;;;;6272377;22;20026;-82
2021/10/25 00:39:10;;;;;;;0.10;0.10;;;5.40;99.90;;;;;;6298032;22;20121;-81
2021/10/25 00:41:37;;;;;;;0.10;0.10;;;5.40;99.90;;;;;;6297980;22;20340;-82
2021/10/25 00:44:03;;;;;;;0.10;0.10;;;5.30;99.90;;;;;;6273094;22;20387;-82
2021/10/25 00:46:30;;;;;;;0.17;0.17;;;5.30;99.90;;;;;;6322977;22;20019;-81
2021/10/25 00:48:57;;;;;;;0.10;0.10;;;5.30;99.90;;;;;;6272690;22;20046;-81
2021/10/25 00:51:24;;;;;;;0.20;0.20;;;5.30;99.90;;;;;;6247292;22;20015;-81
2021/10/25 00:53:51;;;;;;;0.10;0.10;;;5.30;99.90;;;;;;6298009;22;20011;-81
2021/10/25 00:56:18;;;;;;;0.10;0.10;;;5.20;99.90;;;;;;6272747;22;20014;-81
2021/10/25 00:58:44;;;;;;;0.10;0.10;;;5.40;99.90;;;;;;6323506;22;20065;-81
2021/10/25 01:01:11;;;;;;;0.10;0.10;;;5.20;99.90;;;;;;6248018;22;20042;-81
2021/10/25 01:03:38;;;;;;;0.10;0.10;;;5.30;99.90;;;;;;6297873;22;20012;-81
2021/10/25 01:06:06;;;;;;;0.10;0.10;;;5.50;99.90;;;;;;6247732;22;20015;-81
2021/10/25 01:08:36;;;;;;;0.10;0.10;;;5.60;99.90;;;;;;6248066;22;20011;-81
2021/10/25 01:11:04;;;;;;;0.10;0.10;;;5.20;99.90;;;;;;6323433;22;20081;-81
2021/10/25 01:13:30;;;;;;;0.10;0.10;;;5.20;99.90;;;;;;6297503;22;20019;-81
2021/10/25 01:15:57;;;;;;;0.10;0.10;;;5.10;99.90;;;;;;6272849;22;20344;-81
2021/10/25 01:18:24;;;;;;;0.10;0.10;;;5.10;99.90;;;;;;6272067;22;20019;-81
2021/10/25 01:20:51;;;;;;;0.10;0.10;;;5.10;99.90;;;;;;6272461;22;20042;-81
2021/10/25 01:23:17;;;;;;;0.10;0.10;;;5.00;99.90;;;;;;6323534;22;20384;-81
2021/10/25 01:25:44;;;;;;;0.10;0.10;;;5.50;99.90;;;;;;6297469;22;20072;-81
2021/10/25 01:28:12;;;;;;;0.10;0.10;;;5.00;99.90;;;;;;6247676;22;20019;-81
2021/10/25 01:30:38;;;;;;;0.10;0.10;;;5.00;99.90;;;;;;6297372;22;20019;-81
2021/10/25 01:33:10;;;;;;;0.10;0.10;;;5.00;99.90;;;;;;6298100;22;20021;-81
2021/10/25 01:35:37;;;;;;;0.10;0.10;;;4.90;99.90;;;;;;6297201;22;20371;-81
2021/10/25 01:38:04;;;;;;;0.10;0.10;;;4.90;99.90;;;;;;6297712;22;20026;-81
2021/10/25 01:40:31;;;;;;;0.10;0.10;;;4.90;99.90;;;;;;6246908;22;20011;-81
2021/10/25 01:42:57;;;;;;;0.10;0.10;;;4.90;99.90;;;;;;6247061;22;20383;-81
2021/10/25 01:45:25;;;;;;;0.10;0.10;;;5.30;99.90;;;;;;6247027;22;20428;-81
2021/10/25 01:47:52;;;;;;;0.10;0.10;;;4.90;99.90;;;;;;6296971;22;20012;-81
2021/10/25 01:50:18;;;;;;;0.10;0.10;;;5.20;99.90;;;;;;6297035;22;20458;-81
2021/10/25 01:52:45;;;;;;;0.10;0.10;;;5.30;99.90;;;;;;6297112;22;20042;-81
2021/10/25 01:55:12;;;;;;;0.10;0.10;;;4.80;99.90;;;;;;6272423;22;20049;-81
2021/10/25 01:57:39;;;;;;;0.15;0.15;;;4.80;99.90;;;;;;6271985;22;20026;-81
2021/10/25 02:00:06;;;;;;;0.10;0.10;;;5.60;99.90;;;;;;6272514;22;20023;-81
2021/10/25 02:02:33;;;;;;;0.10;0.10;;;4.80;99.90;;;;;;6271991;22;20011;-81
2021/10/25 02:05:02;;;;;;;0.10;0.10;;;5.10;99.90;;;;;;6297522;22;20015;-81
2021/10/25 02:07:29;;;;;;;0.20;0.20;;;4.70;99.90;;;;;;6248336;22;20138;-81
2021/10/25 02:09:56;;;;;;;0.20;0.20;;;4.70;99.90;;;;;;6297380;22;20051;-81
2021/10/25 02:12:23;;;;;;;0.10;0.10;;;4.70;99.90;;;;;;6297298;22;20015;-81
2021/10/25 02:14:50;;;;;;;0.10;0.10;;;4.80;99.90;;;;;;6246680;22;20053;-81
2021/10/25 02:17:16;;;;;;;0.20;0.20;;;4.70;99.90;;;;;;6297214;22;20019;-81
2021/10/25 02:19:46;;;;;;;0.10;0.10;;;4.70;99.90;;;;;;6296847;22;20019;-81
2021/10/25 02:22:13;;;;;;;0.10;0.10;;;4.70;99.90;;;;;;6298005;22;20145;-81
2021/10/25 02:24:40;;;;;;;0.10;0.10;;;5.40;99.90;;;;;;6271897;22;20015;-80
2021/10/25 02:27:07;;;;;;;0.20;0.20;;;5.10;99.90;;;;;;6297453;22;20094;-81
2021/10/25 02:29:35;;;;;;;0.10;0.10;;;4.70;99.90;;;;;;6271530;22;20058;-80
2021/10/25 02:32:04;;;;;;;0.10;0.10;;;5.20;99.90;;;;;;6272267;22;20015;-81
2021/10/25 02:34:32;;;;;;;0.15;0.15;;;4.70;99.90;;;;;;6272206;22;20343;-81
2021/10/25 02:37:00;;;;;;;0.10;0.10;;;4.70;99.90;;;;;;6271952;22;20015;-81
2021/10/25 02:39:28;;;;;;;0.10;0.10;;;4.70;99.90;;;;;;6297151;22;20023;-82
2021/10/25 02:41:56;;;;;;;0.10;0.10;;;4.70;99.90;;;;;;6247404;22;20053;-81
2021/10/25 02:44:23;;;;;;;0.10;0.10;;;4.70;99.90;;;;;;6272051;22;20490;-81
2021/10/25 02:46:52;;;;;;;0.10;0.10;;;4.70;99.90;;;;;;6271030;22;20019;-81
2021/10/25 02:49:20;;;;;;;0.10;0.10;;;4.70;99.90;;;;;;6271600;22;20019;-82
2021/10/25 02:51:47;;;;;;;0.20;0.20;;;4.70;99.90;;;;;;6322186;22;20466;-81
2021/10/25 02:54:14;;;;;;;0.10;0.10;;;4.70;99.90;;;;;;6322865;22;20012;-81
2021/10/25 02:56:40;;;;;;;0.10;0.10;;;4.80;99.90;;;;;;6246579;22;20077;-81
2021/10/25 02:59:09;;;;;;;0.20;0.20;;;5.30;99.90;;;;;;6271921;22;20011;-81
2021/10/25 03:01:37;;;;;;;0.20;0.20;;;4.60;99.90;;;;;;6273676;22;20011;-81
2021/10/25 03:04:05;;;;;;;0.10;0.10;;;4.70;99.90;;;;;;6324705;22;20015;-81
2021/10/25 03:06:32;;;;;;;0.10;0.10;;;4.70;99.90;;;;;;6299275;22;20073;-81
2021/10/25 03:08:59;;;;;;;0.10;0.10;;;4.70;99.90;;;;;;6298778;22;20015;-81
2021/10/25 03:11:26;;;;;;;0.10;0.10;;;4.70;99.90;;;;;;6299365;22;20068;-81
2021/10/25 03:13:53;;;;;;;0.10;0.10;;;4.60;99.90;;;;;;6273326;22;20126;-81
2021/10/25 03:16:21;;;;;;;0.10;0.10;;;4.70;99.90;;;;;;6299231;22;20016;-81
2021/10/25 03:18:49;;;;;;;0.10;0.10;;;4.80;99.90;;;;;;6273399;22;20015;-81
2021/10/25 03:21:18;;;;;;;0.17;0.17;;;4.70;99.90;;;;;;6324627;22;20020;-81
2021/10/25 03:23:45;;;;;;;0.20;0.20;;;4.70;99.90;;;;;;6298678;22;20011;-81
2021/10/25 03:26:12;;;;;;;0.10;0.10;;;4.60;99.90;;;;;;6299211;22;20011;-81
2021/10/25 03:28:39;;;;;;;0.10;0.10;;;4.70;99.90;;;;;;6273385;22;20037;-80
2021/10/25 03:31:07;;;;;;;0.10;0.10;;;4.70;99.90;;;;;;6274083;22;20023;-82
2021/10/25 03:33:35;;;;;;;0.10;0.10;;;4.70;99.90;;;;;;6299016;22;20448;-82
2021/10/25 03:36:04;;;;;;;0.10;0.10;;;5.10;99.90;;;;;;6298745;22;20050;-82
2021/10/25 03:38:33;;;;;;;0.10;0.10;;;4.70;99.90;;;;;;6298943;22;20016;-81
2021/10/25 03:41:01;;;;;;;0.10;0.10;;;4.70;99.90;;;;;;6273277;22;20027;-81
2021/10/25 03:43:33;;;;;;;0.20;0.20;;;4.70;99.90;;;;;;6299187;22;20102;-80
2021/10/25 03:46:17;;;;;;;0.10;0.10;;;4.70;99.90;;;;;;6250355;22;20073;-81
2021/10/25 03:48:52;;;;;;;0.10;0.10;;;4.70;99.90;;;;;;6302371;22;20448;-81
2021/10/25 03:51:19;;;;;;;0.10;0.10;;;4.70;99.90;;;;;;6298808;22;20061;-81
2021/10/25 03:56:42;;;;;;;0.10;0.10;;;4.90;99.90;;;;;;6324369;22;20076;-81
2021/10/25 04:26:48;;;;;;;0.20;0.20;;;4.80;99.90;;;;;;6280937;22;20539;-80
2021/10/25 04:29:18;;;;;;;0.10;0.10;;;4.70;99.90;;;;;;6298555;22;20015;-81
2021/10/25 04:31:45;;;;;;;0.10;0.10;;;4.70;99.90;;;;;;6249709;22;20011;-81
2021/10/25 04:34:12;;;;;;;0.10;0.10;;;4.70;99.90;;;;;;6272837;22;20011;-81
2021/10/25 04:36:39;;;;;;;0.10;0.10;;;4.80;99.90;;;;;;6297717;22;20019;-81
2021/10/25 04:39:09;;;;;;;0.10;0.10;;;4.70;99.90;;;;;;6297980;22;20072;-81
2021/10/25 04:41:37;;;;;;;0.10;0.10;;;4.70;99.90;;;;;;6273763;22;20475;-81
2021/10/25 04:44:04;;;;;;;0.10;0.10;;;4.80;99.90;;;;;;6247727;22;20030;-80
2021/10/25 04:46:32;;;;;;;0.10;0.10;;;4.70;99.90;;;;;;6273104;22;20404;-81
2021/10/25 04:48:58;;;;;;;0.20;0.20;;;4.70;99.90;;;;;;6272599;22;20339;-80
2021/10/25 04:51:25;;;;;;;0.10;0.10;;;4.70;99.90;;;;;;6248091;22;20007;-82
2021/10/25 04:53:52;;;;;;;0.10;0.10;;;4.70;99.90;;;;;;6297742;22;20015;-81
2021/10/25 04:56:19;;;;;;;0.10;0.10;;;4.80;99.90;;;;;;6247814;22;20011;-81
2021/10/25 04:58:45;;;;;;;0.10;0.10;;;5.00;99.90;;;;;;6272895;22;20054;-81
2021/10/25 05:01:12;;;;;;;0.10;0.10;;;5.00;99.90;;;;;;6247076;22;20015;-81
2021/10/25 05:03:39;;;;;;;0.10;0.10;;;4.80;99.90;;;;;;6247624;22;20149;-81
2021/10/25 05:06:07;;;;;;;0.17;0.17;;;4.80;99.90;;;;;;6247211;22;20023;-81
2021/10/25 05:08:33;;;;;;;0.20;0.20;;;4.80;99.90;;;;;;6298355;22;20077;-81
2021/10/25 05:11:00;;;;;;;0.10;0.10;;;4.70;99.90;;;;;;6272712;22;20342;-81
2021/10/25 05:13:27;;;;;;;0.10;0.10;;;4.80;99.90;;;;;;6272745;22;20077;-81
2021/10/25 05:15:53;;;;;;;0.10;0.10;;;4.80;99.90;;;;;;6272245;22;20326;-81
2021/10/25 05:18:20;;;;;;;0.10;0.10;;;4.70;99.90;;;;;;6297911;22;20464;-81
2021/10/25 05:20:47;;;;;;;0.10;0.10;;;4.80;99.90;;;;;;6272464;22;20019;-81
2021/10/25 05:23:13;;;;;;;0.10;0.10;;;4.80;99.90;;;;;;6271900;22;20012;-81
2021/10/25 05:25:41;;;;;;;0.17;0.17;;;4.90;99.90;;;;;;6297348;22;20033;-81
2021/10/25 05:28:08;;;;;;;0.10;0.10;;;4.90;99.90;;;;;;6297310;22;20018;-80
2021/10/25 05:30:35;;;;;;;0.10;0.10;;;5.00;99.90;;;;;;6272260;22;20047;-80
2021/10/25 05:33:02;;;;;;;0.10;0.10;;;5.00;99.90;;;;;;6246989;22;20053;-80
2021/10/25 05:35:29;;;;;;;0.10;0.10;;;5.70;99.90;;;;;;6247160;22;20019;-80
2021/10/25 05:37:56;;;;;;;0.10;0.10;;;5.20;99.90;;;;;;6272382;22;20026;-81
2021/10/25 05:40:23;;;;;;;0.10;0.10;;;5.10;99.90;;;;;;6298071;22;20015;-81
2021/10/25 05:42:51;;;;;;;0.10;0.10;;;5.20;99.90;;;;;;6272669;22;20018;-81
2021/10/25 05:45:18;;;;;;;0.10;0.10;;;5.20;99.90;;;;;;6271995;22;20019;-81
2021/10/25 05:47:47;;;;;;;0.10;0.10;;;5.30;99.90;;;;;;6297770;22;20015;-81
2021/10/25 05:50:14;;;;;;;0.10;0.10;;;5.50;99.90;;;;;;6248155;22;20070;-81
2021/10/25 05:52:41;;;;;;;0.10;0.10;;;5.30;99.90;;;;;;6323204;22;20456;-81
2021/10/25 05:55:08;;;;;;;0.10;0.10;;;5.90;99.90;;;;;;6246983;22;20019;-81
2021/10/25 05:57:35;;;;;;;0.10;0.10;;;5.40;99.90;;;;;;6272384;22;20019;-81
2021/10/25 06:00:04;;;;;;;0.10;0.10;;;5.60;99.90;;;;;;6271169;22;20471;-81
2021/10/25 06:02:36;;;;;;;0.10;0.10;;;5.50;99.90;;;;;;6272340;22;20046;-81
2021/10/25 06:05:06;;;;;;;0.10;0.10;;;5.60;99.90;;;;;;6248570;22;20012;-81
2021/10/25 06:07:33;;;;;;;0.10;0.10;;;5.60;99.90;;;;;;6322629;22;20012;-81
2021/10/25 06:10:00;;;;;;;0.10;0.10;;;5.80;99.90;;;;;;6296753;22;20027;-80
2021/10/25 06:12:27;;;;;;;0.28;0.28;;;5.70;99.90;;;;;;6247184;22;20050;-81
2021/10/25 06:15:05;;;;;;;0.10;0.10;;;5.80;99.90;;;;;;6247190;22;20023;-80
2021/10/25 06:20:01;;;;;;;0.10;0.10;;;5.80;99.90;;;;;;6272012;22;20023;-80
2021/10/25 06:22:30;;;;;;;0.10;0.10;;;6.10;99.90;;;;;;6296586;22;20440;-80
2021/10/25 06:24:56;;;;;;;0.10;0.10;;;5.90;99.90;;;;;;6272789;22;20352;-80
2021/10/25 06:27:23;;;;;;;0.20;0.20;;;5.90;99.90;;;;;;6271330;22;20011;-80
2021/10/25 06:29:50;;;;;;;0.10;0.10;;;5.90;99.90;;;;;;6271010;22;20097;-80
2021/10/25 06:32:16;;;;;;;0.10;0.10;;;6.00;99.90;;;;;;6246226;22;20023;-80
2021/10/25 06:34:44;;;;;;;0.10;0.10;;;6.00;99.90;;;;;;6246616;22;20023;-80
2021/10/25 06:37:11;;;;;;;0.10;0.10;;;6.00;99.90;;;;;;6246510;22;20394;-81
2021/10/25 06:39:43;;;;;;;0.10;0.10;;;6.10;99.90;;;;;;6296670;22;20023;-80
2021/10/25 06:42:10;;;;;;;0.10;0.10;;;6.10;99.90;;;;;;6297857;22;20015;-80
2021/10/25 06:47:22;;;;;;;0.10;0.10;;;6.10;99.90;;;;;;6299769;22;20022;-80
2021/10/25 06:49:49;;;;;;;0.10;0.10;;;6.20;99.90;;;;;;6296768;22;20019;-80
2021/10/25 06:52:16;;;;;;;0.13;0.13;;;6.20;99.90;;;;;;6296619;22;20078;-80
2021/10/25 06:54:43;;;;;;;0.10;0.10;;;6.30;99.90;;;;;;6246497;22;20838;-80
2021/10/25 06:57:09;;;;;;;0.10;0.10;;;6.30;99.90;;;;;;6246184;22;20081;-81
2021/10/25 06:59:36;;;;;;;0.10;0.10;;;6.30;99.90;;;;;;6271253;22;20024;-82
2021/10/25 07:02:03;;;;;;;0.10;0.10;;;6.70;99.90;;;;;;6296713;22;20479;-82
2021/10/25 07:04:29;;;;;;;0.10;0.10;;;6.40;99.90;;;;;;6271645;22;20022;-81
2021/10/25 07:06:57;;;;;;;0.10;0.10;;;6.60;99.90;;;;;;6246554;22;20015;-82
2021/10/25 07:09:24;;;;;;;0.10;0.10;;;6.50;99.90;;;;;;6296507;22;20019;-81
2021/10/25 07:11:51;;;;;;;0.10;0.10;;;6.60;99.90;;;;;;6271184;22;20062;-82
2021/10/25 07:14:24;;;;;;;0.10;0.10;;;6.60;99.90;;;;;;6271273;22;20022;-82
2021/10/25 07:17:04;;;;;;;0.10;0.10;;;6.60;99.90;;;;;;6249576;22;20011;-82
2021/10/25 07:20:00;;;;;;;0.10;0.10;;;7.30;99.90;;;;;;6273404;22;20440;-80
2021/10/25 08:03:29;;;;;;;0.10;0.10;;;7.50;99.90;;;;;;6273353;22;20019;-80
2021/10/25 08:06:14;;;;;;;0.08;0.08;;;7.50;99.90;;;;;;6324191;22;20068;-88
2021/10/25 08:08:50;;;;;;;0.10;0.10;;;7.60;99.90;;;;;;6256025;22;20010;-83
2021/10/25 08:11:18;;;;;;;0.20;0.20;;;7.70;99.90;;;;;;6300403;22;20023;-80
2021/10/25 08:13:46;;;;;;;0.10;0.10;;;7.70;99.90;;;;;;6273567;22;20069;-80
2021/10/25 08:21:20;;;;;;;0.10;0.10;;;7.80;99.90;;;;;;6298775;22;20015;-85
2021/10/25 08:23:50;;;;;;;0.17;0.17;;;7.80;99.90;;;;;;6273124;22;20348;-82
2021/10/25 08:26:17;;;;;;;0.10;0.10;;;7.80;99.90;;;;;;6272484;22;20022;-80
2021/10/25 08:28:44;;;;;;;0.10;0.10;;;7.80;99.90;;;;;;6298114;22;20011;-81
2021/10/25 08:31:13;;;;;;;0.10;0.10;;;7.90;99.90;;;;;;6248371;22;20053;-78
2021/10/25 08:33:48;;;;;;;0.10;0.10;;;7.90;99.90;;;;;;6323816;22;20120;-79
2021/10/25 08:36:24;;;;;;;0.00;0.00;;;8.00;99.90;;;;;;6299713;22;20021;-80
2021/10/25 08:41:36;;;;;;;0.20;0.20;;;8.00;99.90;;;;;;6280303;22;20126;-79
2021/10/25 08:44:06;;;;;;;0.03;0.03;;;8.00;99.90;;;;;;6273010;22;20047;-79
2021/10/25 08:46:33;;;;;;;0.00;0.00;;;8.10;99.90;;;;;;6297632;22;20352;-79
2021/10/25 08:49:00;;;;;;;0.00;0.00;;;8.10;99.90;;;;;;6272822;22;20019;-79
2021/10/25 08:51:29;;;;;;;0.03;0.03;;;8.20;99.90;;;;;;6273534;22;20007;-79
2021/10/25 08:53:56;;;;;;;0.30;0.30;;;8.30;99.90;;;;;;6298075;22;20018;-79
2021/10/25 08:56:23;;;;;;;0.35;0.30;;;8.40;99.90;;;;;;6272517;22;20440;-79
2021/10/25 08:58:52;;;;;;;0.10;0.10;;;8.50;99.90;;;;;;6247378;22;20073;-79
2021/10/25 09:01:26;;;;;;;1.98;0.20;;;8.60;99.90;;;;;;6322924;22;20023;-79
2021/10/25 09:04:07;;;;;;;0.00;0.00;;;8.70;99.90;;;;;;6248460;22;20011;-79
2021/10/25 09:06:50;;;;;;;0.10;0.10;;;8.70;99.90;;;;;;6297541;22;20102;-79
2021/10/25 09:09:18;;;;;;;0.00;0.00;;;8.90;99.90;;;;;;6297821;22;20014;-81
2021/10/25 09:12:06;;;;;;;0.10;0.10;;;8.90;99.90;;;;;;6272967;22;20025;-80
2021/10/25 09:14:34;;;;;;;0.00;0.00;;;9.00;99.90;;;;;;6297641;22;20015;-80
2021/10/25 09:17:06;;;;;;;0.08;0.08;;;9.00;99.90;;;;;;6247834;22;20098;-80
2021/10/25 09:19:36;;;;;;;0.10;0.10;;;9.10;99.90;;;;;;6297368;22;20051;-80
2021/10/25 09:22:11;;;;;;;0.10;0.10;;;9.10;99.90;;;;;;6297849;22;20015;-81
2021/10/25 09:24:38;;;;;;;0.20;0.20;;;9.10;99.90;;;;;;6297502;22;20191;-80
2021/10/25 09:27:08;;;;;;;0.10;0.10;;;9.10;99.90;;;;;;6272886;22;20726;-80
2021/10/25 09:29:39;;;;;;;0.10;0.10;;;9.20;99.90;;;;;;6297123;22;20015;-80
2021/10/25 09:32:14;;;;;;;0.00;0.00;;;9.20;99.90;;;;;;6272982;22;20022;-80
2021/10/25 09:34:53;;;;;;;0.10;0.10;;;9.20;99.90;;;;;;6273576;22;20477;-80
2021/10/25 09:37:23;;;;;;;0.10;0.10;;;9.30;99.90;;;;;;6275244;22;20027;-80
2021/10/25 09:39:53;;;;;;;0.00;0.00;;;9.30;99.90;;;;;;6298375;22;20017;-80
2021/10/25 09:50:30;;;;;;;0.10;0.10;;;9.40;99.90;;;;;;6279928;22;20019;-81
2021/10/25 09:52:58;;;;;;;0.00;0.00;;;9.40;99.90;;;;;;6297506;22;20023;-80
2021/10/25 09:55:26;;;;;;;0.00;0.00;;;9.40;99.90;;;;;;6271617;22;20479;-81
2021/10/25 09:58:16;;;;;;;0.10;0.10;;;10.20;99.90;;;;;;6322994;22;20389;-81
2021/10/25 10:00:44;;;;;;;0.00;0.00;;;9.50;99.90;;;;;;6274357;22;20019;-80
2021/10/25 10:03:12;;;;;;;0.00;0.00;;;9.50;99.90;;;;;;6322838;22;20317;-81
2021/10/25 10:05:41;;;;;;;0.00;0.00;;;9.40;99.90;;;;;;6271922;22;20344;-80
2021/10/25 10:08:09;;;;;;;0.08;0.08;;;9.50;99.90;;;;;;6322494;22;20069;-80
2021/10/25 10:10:37;;;;;;;0.00;0.00;;;9.50;99.90;;;;;;6296668;22;20015;-81
2021/10/25 10:13:05;;;;;;;0.00;0.00;;;9.60;99.90;;;;;;6271874;22;20514;-80
2021/10/25 10:15:34;;;;;;;0.28;0.15;;;9.50;99.90;;;;;;6296932;22;20022;-80
2021/10/25 10:18:16;;;;;;;0.00;0.00;;;9.60;99.90;;;;;;6272397;22;20348;-81
2021/10/25 10:20:46;;;;;;;0.03;0.03;;;9.60;99.90;;;;;;6296834;22;20028;-81
2021/10/25 10:23:18;;;;;;;0.20;0.10;;;9.50;99.90;;;;;;6322694;22;20387;-81
2021/10/25 10:25:59;;;;;;;0.00;0.00;;;9.50;99.90;;;;;;6296163;22;20011;-80
2021/10/25 10:28:44;;;;;;;0.00;0.00;;;9.50;99.90;;;;;;6322558;22;20022;-82
2021/10/25 10:31:15;;;;;;;0.00;0.00;;;9.50;99.90;;;;;;6297194;22;20030;-81
2021/10/25 10:33:46;;;;;;;0.00;0.00;;;9.60;99.90;;;;;;6296827;22;20016;-81
2021/10/25 10:36:27;;;;;;;0.20;0.20;;;9.60;99.90;;;;;;6296703;22;20053;-80
2021/10/25 10:39:04;;;;;;;0.00;0.00;;;9.60;99.90;;;;;;6297098;22;20012;-81
2021/10/25 10:41:39;;;;;;;0.10;0.10;;;9.60;99.90;;;;;;6296190;22;20023;-81
2021/10/25 10:44:07;;;;;;;0.10;0.10;;;9.70;99.90;;;;;;6297252;22;20034;-80
2021/10/25 10:46:49;;;;;;;0.00;0.00;;;9.70;99.90;;;;;;6296205;22;20149;-81
2021/10/25 10:49:33;;;;;;;0.00;0.00;;;9.80;99.90;;;;;;6296952;22;20015;-81
2021/10/25 10:52:33;;;;;;;0.10;0.05;;;9.80;99.90;;;;;;6296806;22;20336;-80
2021/10/25 10:55:05;;;;;;;0.00;0.00;;;9.80;99.90;;;;;;6296941;22;20034;-81
2021/10/25 11:00:31;;;;;;;0.00;0.00;;;9.90;99.90;;;;;;6322071;22;20019;-81
2021/10/25 11:03:00;;;;;;;0.08;0.08;;;9.90;99.90;;;;;;6296741;22;20022;-80
2021/10/25 11:05:32;;;;;;;0.00;0.00;;;10.00;99.90;;;;;;6296606;22;20030;-80
2021/10/25 11:08:24;;;;;;;0.00;0.00;;;10.00;99.90;;;;;;6296444;22;20065;-81
2021/10/25 11:11:06;;;;;;;0.10;0.10;;;10.10;99.90;;;;;;6296521;22;20130;-88
2021/10/25 11:13:40;;;;;;;0.00;0.00;;;10.10;99.90;;;;;;6322226;22;20026;-79
2021/10/25 11:16:16;;;;;;;0.00;0.00;;;10.10;99.90;;;;;;6296964;22;20023;-80
2021/10/25 11:18:55;;;;;;;0.03;0.03;;;10.10;99.90;;;;;;6296328;22;20019;-79
2021/10/25 11:21:28;;;;;;;0.00;0.00;;;10.00;99.90;;;;;;6322432;22;20022;-80
2021/10/25 11:24:00;;;;;;;0.00;0.00;;;10.00;99.90;;;;;;6298407;22;20061;-79
2021/10/25 11:26:28;;;;;;;0.00;0.00;;;10.00;99.90;;;;;;6298969;22;20019;-79
2021/10/25 11:29:14;;;;;;;0.00;0.00;;;9.90;99.90;;;;;;6298587;22;20015;-84
2021/10/25 11:31:46;;;;;;;;;;;9.90;99.90;;;;;;6299480;22;20015;-84
2021/10/25 11:34:19;;;;;;;0.00;0.00;;;9.90;99.90;;;;;;6324316;22;19953;-84
2021/10/25 11:37:01;;;;;;;0.20;0.20;;;9.90;99.90;;;;;;6298231;22;20018;-83
2021/10/25 11:39:41;;;;;;;0.00;0.00;;;9.80;99.90;;;;;;6298599;22;20069;-84
2021/10/25 11:42:12;;;;;;;0.00;0.00;;;9.80;99.90;;;;;;6298927;22;20708;-84
2021/10/25 11:44:44;;;;;;;0.00;0.00;;;9.80;99.90;;;;;;6323639;22;20363;-83
2021/10/25 11:47:19;;;;;;;0.00;0.00;;;9.70;99.90;;;;;;6324020;22;20026;-84
2021/10/25 11:49:51;;;;;;;1.25;0.52;;;9.70;99.90;;;;;;6297956;22;20019;-83
2021/10/25 11:52:18;;;;;;;0.00;0.00;;;9.70;99.90;;;;;;6324095;22;20088;-84
2021/10/25 11:54:50;;;;;;;0.00;0.00;;;9.60;99.90;;;;;;6272892;22;20023;-83
2021/10/25 11:57:18;;;;;;;0.00;0.00;;;9.60;99.90;;;;;;6298961;22;20023;-80
2021/10/25 11:59:59;;;;;;;0.10;0.10;;;9.70;99.90;;;;;;6297494;22;20098;-80
2021/10/25 12:02:26;;;;;;;0.00;0.00;;;9.70;99.90;;;;;;6298619;22;20094;-80
2021/10/25 12:04:53;;;;;;;0.00;0.00;;;9.60;99.90;;;;;;6298372;22;20030;-81
2021/10/25 12:07:20;;;;;;;0.10;0.10;;;9.60;99.90;;;;;;6298645;22;20437;-80
2021/10/25 12:09:46;;;;;;;0.10;0.10;;;9.60;99.90;;;;;;6323695;22;20034;-80
2021/10/25 12:12:14;;;;;;;0.10;0.10;;;9.60;99.90;;;;;;6298709;22;20094;-80
2021/10/25 12:14:44;;;;;;;0.00;0.00;;;9.70;99.90;;;;;;6298004;22;20061;-81
2021/10/25 12:17:17;;;;;;;0.00;0.00;;;9.70;99.90;;;;;;6274110;22;20015;-80
2021/10/25 12:19:45;;;;;;;0.03;0.03;;;9.70;99.90;;;;;;6323136;22;20326;-81
2021/10/25 12:22:19;;;;;;;0.10;0.10;;;9.70;99.90;;;;;;6273028;22;20015;-80
2021/10/25 12:24:51;;;;;;;0.00;0.00;;;9.80;99.90;;;;;;6323514;22;20440;-80
2021/10/25 12:27:32;;;;;;;1.10;0.90;;;9.80;99.90;;;;;;6298507;22;20016;-80
2021/10/25 12:30:06;;;;;;;0.00;0.00;;;9.80;99.90;;;;;;6297853;22;20022;-80
2021/10/25 12:32:39;;;;;;;0.10;0.10;;;9.80;99.90;;;;;;6298216;22;20015;-80
2021/10/25 12:35:06;;;;;;;0.00;0.00;;;9.90;99.90;;;;;;6298019;22;20512;-80
2021/10/25 12:37:36;;;;;;;0.10;0.10;;;9.90;99.90;;;;;;6298493;22;20054;-80
2021/10/25 12:40:18;;;;;;;0.00;0.00;;;9.90;99.90;;;;;;6297930;22;20047;-80
2021/10/25 12:42:46;;;;;;;0.00;0.00;;;10.00;99.90;;;;;;6297657;22;20016;-80
2021/10/25 12:45:15;;;;;;;0.00;0.00;;;10.00;99.90;;;;;;6297707;22;20391;-80
2021/10/25 12:47:42;;;;;;;0.10;0.10;;;10.00;99.90;;;;;;6323061;22;20011;-80
2021/10/25 12:50:13;;;;;;;0.10;0.10;;;10.00;99.90;;;;;;6247906;22;20025;-80
2021/10/25 12:52:42;;;;;;;0.00;0.00;;;10.00;99.90;;;;;;6324101;22;20019;-80
2021/10/25 12:55:09;;;;;;;0.70;0.20;;;10.00;99.90;;;;;;6273014;22;20015;-80
2021/10/25 12:57:37;;;;;;;0.05;0.05;;;10.00;99.90;;;;;;6247763;22;20022;-80
2021/10/25 13:00:09;;;;;;;0.30;0.10;;;10.10;99.90;;;;;;6297274;22;20019;-80
2021/10/25 13:02:55;;;;;;;0.00;0.00;;;10.10;99.90;;;;;;6272120;22;20009;-80
2021/10/25 13:05:33;;;;;;;0.00;0.00;;;10.20;99.90;;;;;;6272647;22;20038;-80
2021/10/25 13:08:03;;;;;;;0.00;0.00;;;10.20;99.90;;;;;;6297158;22;20011;-80
2021/10/25 13:10:36;;;;;;;0.08;0.08;;;10.20;99.90;;;;;;6297204;22;20390;-80
2021/10/25 13:13:05;;;;;;;0.10;0.10;;;10.20;99.90;;;;;;6296517;22;20050;-80
2021/10/25 13:15:33;;;;;;;0.00;0.00;;;10.40;99.90;;;;;;6272654;22;20027;-80
2021/10/25 13:18:03;;;;;;;0.00;0.00;;;10.40;99.90;;;;;;6297300;22;20141;-80
2021/10/25 13:20:32;;;;;;;0.00;0.00;;;10.40;99.90;;;;;;6323098;22;20019;-80
2021/10/25 13:23:02;;;;;;;0.00;0.00;;;10.40;99.90;;;;;;6297032;22;20341;-80
2021/10/25 13:25:30;;;;;;;0.00;0.00;;;10.40;99.90;;;;;;6297313;22;20478;-80
2021/10/25 13:27:59;;;;;;;0.10;0.10;;;10.40;99.90;;;;;;6322694;22;20020;-80
2021/10/25 13:30:26;;;;;;;0.10;0.10;;;10.40;99.90;;;;;;6297625;22;20050;-80
2021/10/25 13:32:54;;;;;;;0.10;0.10;;;10.40;99.90;;;;;;6322886;22;20023;-80
2021/10/25 13:35:21;;;;;;;0.00;0.00;;;10.50;99.90;;;;;;6272135;22;20081;-80
2021/10/25 13:37:52;;;;;;;0.10;0.10;;;10.40;99.90;;;;;;6271986;22;20018;-80
2021/10/25 13:40:26;;;;;;;0.10;0.10;;;10.50;99.90;;;;;;6297070;22;20019;-80
2021/10/25 13:42:58;;;;;;;0.00;0.00;;;10.40;99.90;;;;;;6296998;22;20020;-80
2021/10/25 13:45:25;;;;;;;0.00;0.00;;;10.50;99.90;;;;;;6296998;22;20026;-80
2021/10/25 13:47:53;;;;;;;0.03;0.03;;;10.40;99.90;;;;;;6271812;22;20341;-79
2021/10/25 13:50:22;;;;;;;0.20;0.20;;;10.40;99.90;;;;;;6271907;22;20019;-80
2021/10/25 13:52:49;;;;;;;0.45;0.45;;;10.40;99.90;;;;;;6297285;22;20019;-80
2021/10/25 13:55:16;;;;;;;0.08;0.08;;;10.50;99.90;;;;;;6247090;22;20103;-80
2021/10/25 13:57:44;;;;;;;0.00;0.00;;;10.50;99.90;;;;;;6322926;22;20015;-80
2021/10/25 14:00:13;;;;;;;0.00;0.00;;;10.60;99.90;;;;;;6247793;22;20026;-80
2021/10/25 14:02:42;;;;;;;0.00;0.00;;;10.60;99.90;;;;;;6348776;22;20470;-80
2021/10/25 14:05:11;;;;;;;0.13;0.13;;;10.60;99.90;;;;;;6271836;22;20004;-79
2021/10/25 14:07:38;;;;;;;0.20;0.15;;;10.60;99.90;;;;;;6297083;22;20026;-80
2021/10/25 14:10:53;;;;;;;0.03;0.03;;;10.60;99.90;;;;;;6246874;22;20053;-80
2021/10/25 14:13:03;;;;;;;0.00;0.00;;;10.70;99.90;;;;;;6305874;22;20015;-80
2021/10/25 14:15:30;;;;;;;0.10;0.10;;;10.70;99.90;;;;;;6274934;22;20432;-81
2021/10/25 14:17:58;;;;;;;0.10;0.10;;;10.70;99.90;;;;;;6246820;22;20069;-80
2021/10/25 14:20:28;;;;;;;0.00;0.00;;;10.70;99.90;;;;;;6271996;22;20015;-85
2021/10/25 14:22:59;;;;;;;0.30;0.20;;;10.70;99.90;;;;;;6322078;22;20340;-80
2021/10/25 14:25:27;;;;;;;0.00;0.00;;;10.80;99.90;;;;;;6296723;22;20050;-80
2021/10/25 14:27:55;;;;;;;0.10;0.10;;;10.70;99.90;;;;;;6296292;22;20015;-79
2021/10/25 14:30:22;;;;;;;0.10;0.10;;;10.70;99.90;;;;;;6272009;22;20097;-79
2021/10/25 14:32:51;;;;;;;0.32;0.13;;;10.70;99.90;;;;;;6271355;22;20022;-79
2021/10/25 14:35:18;;;;;;;0.20;0.20;;;10.80;99.90;;;;;;6271469;22;20331;-81
2021/10/25 14:37:45;;;;;;;0.00;0.00;;;10.70;99.90;;;;;;6322470;22;20019;-81
2021/10/25 14:40:14;;;;;;;0.03;0.03;;;10.70;99.90;;;;;;6271786;22;20019;-80
2021/10/25 14:42:58;;;;;;;0.10;0.10;;;10.60;99.90;;;;;;6296595;22;20055;-81
2021/10/25 14:45:32;;;;;;;0.00;0.00;;;10.60;99.90;;;;;;6322374;22;20030;-81